Rockford, Tennessee
Current Conditions -  °F | °C
As of 9:53 PM on Monday 20 Oct 2014 (Local Time) from KTYS Reporting Station
Few Clouds Few Clouds  
Wind Chill: 55°   Ceiling: Unl
Heat Index: 55°   Visibility: 10mi
Dew Point: 50°   Wind: 7mph
Humidity: 83%   Direction: 220°SW
Pressure: 30.01"   Gusts: NA
Location:  35.83°N, 83.94°W
Report Text: KTYS 210153Z 22006KT 10SM FEW100 13/10 A3001 RMK AO2 SLP158 T01280100
Loading
Personal Weather Stations






























Interactive Weather Map
Tropical Storm Tracking
New forecast layout! Learn more

10-Day Weather Forecast

Advertisements
Track Severe Weather on mobile